createdAt,value
2022-08-17T00:00:34.570Z,75.77
2022-08-17T00:03:02.904Z,76.79
2022-08-17T00:05:33.367Z,76.98
2022-08-17T00:08:00.875Z,76.19
2022-08-17T00:10:28.367Z,76.58
2022-08-17T00:13:05.649Z,75.69
2022-08-17T00:15:35.931Z,75.37
2022-08-17T00:18:03.569Z,75.80
2022-08-17T00:20:50.896Z,77.23
2022-08-17T00:23:18.532Z,75.98
2022-08-17T00:25:47.277Z,75.47
2022-08-17T00:28:16.391Z,75.57
2022-08-17T00:30:52.922Z,76.51
2022-08-17T00:33:29.441Z,75.22
2022-08-17T00:35:59.760Z,75.19
2022-08-17T00:38:29.122Z,77.09
2022-08-17T00:41:00.169Z,76.54
2022-08-17T00:43:44.512Z,78.45
2022-08-17T00:46:21.319Z,77.12
2022-08-17T00:48:49.796Z,77.32
2022-08-17T00:51:39.040Z,77.17
2022-08-17T00:54:14.626Z,77.12
2022-08-17T00:57:10.739Z,77.83
2022-08-17T00:59:41.877Z,77.38
2022-08-17T01:02:13.044Z,78.77
2022-08-17T01:04:40.634Z,78.80
2022-08-17T01:07:08.591Z,79.60
2022-08-17T01:09:36.056Z,78.75
2022-08-17T01:12:03.617Z,79.54
2022-08-17T01:14:31.118Z,80.50
2022-08-17T01:16:58.581Z,80.74
2022-08-17T01:19:29.913Z,80.92
2022-08-17T01:22:08.334Z,80.36
2022-08-17T01:24:41.572Z,77.85
2022-08-17T01:27:10.788Z,74.34
2022-08-17T01:29:41.698Z,74.75
2022-08-17T01:32:10.027Z,74.05
2022-08-17T01:34:43.691Z,74.53
2022-08-17T01:37:18.998Z,74.64
2022-08-17T01:39:53.119Z,74.44
2022-08-17T01:42:42.399Z,73.94
2022-08-17T01:45:16.834Z,74.09
2022-08-17T01:47:44.665Z,74.03
2022-08-17T01:50:16.174Z,75.06
2022-08-17T01:52:45.850Z,75.52
2022-08-17T01:55:16.349Z,75.50
2022-08-17T01:57:45.641Z,76.14
2022-08-17T02:00:14.586Z,76.31
2022-08-17T02:02:42.849Z,75.40
2022-08-17T02:05:10.453Z,75.34
2022-08-17T02:07:59.424Z,74.11
2022-08-17T02:10:25.345Z,75.75
2022-08-17T02:13:02.864Z,74.58
2022-08-17T02:15:30.521Z,73.81
2022-08-17T02:17:57.977Z,74.59
2022-08-17T02:20:41.620Z,75.56
2022-08-17T02:23:13.338Z,75.12
2022-08-17T02:25:43.566Z,73.68
2022-08-17T02:28:12.463Z,73.55
2022-08-17T02:30:59.932Z,75.77
2022-08-17T02:33:41.497Z,75.47
2022-08-17T02:36:13.491Z,76.12
2022-08-17T02:38:41.701Z,75.59
2022-08-17T02:41:09.669Z,76.48
2022-08-17T02:43:37.244Z,76.74
2022-08-17T02:46:04.643Z,77.12
2022-08-17T02:48:32.147Z,74.58
2022-08-17T02:51:01.217Z,74.72
2022-08-17T02:53:31.812Z,75.25
2022-08-17T02:56:04.153Z,76.04
2022-08-17T02:58:35.283Z,74.44
2022-08-17T03:01:06.550Z,74.98
2022-08-17T03:03:35.214Z,75.07
2022-08-17T03:06:03.567Z,75.49
2022-08-17T03:08:31.304Z,75.54
2022-08-17T03:10:58.755Z,75.67
2022-08-17T03:13:27.609Z,76.39
2022-08-17T03:15:55.371Z,77.02
2022-08-17T03:18:25.314Z,75.99
2022-08-17T03:20:59.306Z,76.11
2022-08-17T03:23:29.739Z,76.59
2022-08-17T03:25:59.533Z,76.53
2022-08-17T03:28:28.326Z,77.17
2022-08-17T03:30:55.909Z,76.54
2022-08-17T03:33:23.518Z,76.31
2022-08-17T03:35:51.308Z,77.37
2022-08-17T03:38:19.218Z,78.05
2022-08-17T03:40:57.603Z,78.41
2022-08-17T03:43:29.550Z,77.98
2022-08-17T03:46:34.372Z,77.50
2022-08-17T03:49:24.922Z,76.83
2022-08-17T03:52:13.106Z,78.15
2022-08-17T03:55:00.845Z,78.37
2022-08-17T03:57:29.235Z,78.94
2022-08-17T03:59:58.030Z,78.89
2022-08-17T04:02:30.107Z,78.00
2022-08-17T04:04:58.607Z,78.57
2022-08-17T04:07:29.698Z,79.46
2022-08-17T04:09:58.219Z,80.09
2022-08-17T04:12:26.708Z,78.89
2022-08-17T04:14:57.295Z,80.00
2022-08-17T04:17:27.917Z,81.03
2022-08-17T04:19:56.356Z,80.87
2022-08-17T04:22:30.009Z,80.51
2022-08-17T04:25:16.767Z,80.97
2022-08-17T04:27:44.509Z,81.09
2022-08-17T04:30:12.685Z,81.79
2022-08-17T04:33:06.185Z,81.51
2022-08-17T04:35:38.137Z,81.92
2022-08-17T04:38:06.896Z,82.04
2022-08-17T04:40:53.034Z,82.41
2022-08-17T04:43:22.493Z,82.14
2022-08-17T04:45:56.654Z,82.31
2022-08-17T04:48:29.809Z,83.11
2022-08-17T04:51:11.390Z,83.56
2022-08-17T04:53:41.243Z,84.32
2022-08-17T04:56:11.648Z,82.21
2022-08-17T04:58:39.484Z,81.55
2022-08-17T05:01:07.553Z,81.25
2022-08-17T05:03:35.195Z,81.16
2022-08-17T05:06:02.453Z,81.22
2022-08-17T05:08:29.855Z,80.33
2022-08-17T05:10:57.195Z,80.60
2022-08-17T05:13:26.663Z,80.27
2022-08-17T05:15:57.288Z,81.08
2022-08-17T05:18:25.595Z,79.94
2022-08-17T05:20:53.378Z,80.19
2022-08-17T05:23:23.131Z,80.34
2022-08-17T05:25:54.715Z,78.49
2022-08-17T05:28:26.572Z,77.11
2022-08-17T05:30:57.646Z,76.50
2022-08-17T05:33:28.282Z,75.99
2022-08-17T05:35:57.707Z,74.49
2022-08-17T05:38:26.801Z,75.61
2022-08-17T05:40:55.167Z,74.16
2022-08-17T05:43:31.729Z,75.20
2022-08-17T05:46:02.031Z,75.34
2022-08-17T05:48:35.554Z,74.01
2022-08-17T05:51:32.641Z,73.01
2022-08-17T05:54:18.329Z,72.11
2022-08-17T05:56:51.116Z,72.15
2022-08-17T05:59:29.428Z,71.12
2022-08-17T06:02:09.553Z,70.62
2022-08-17T06:04:55.016Z,70.27
2022-08-17T06:07:26.998Z,69.57
2022-08-17T06:10:20.868Z,65.40
2022-08-17T06:13:09.237Z,63.52
2022-08-17T06:16:33.521Z,62.71
2022-08-17T06:19:01.500Z,63.59
2022-08-17T06:21:34.677Z,63.78
2022-08-17T06:24:08.702Z,62.42
2022-08-17T06:26:43.208Z,61.52
2022-08-17T06:29:37.327Z,60.32
2022-08-17T06:32:12.111Z,60.21
2022-08-17T06:34:42.129Z,56.56
2022-08-17T06:37:31.249Z,57.11
2022-08-17T06:40:40.042Z,56.42
2022-08-17T06:43:40.291Z,56.29
2022-08-17T06:46:22.853Z,55.01
2022-08-17T06:49:08.560Z,55.06
2022-08-17T06:51:43.372Z,53.82
2022-08-17T06:54:24.623Z,54.13
2022-08-17T06:57:05.744Z,54.49
2022-08-17T06:59:53.256Z,54.69
2022-08-17T07:02:56.470Z,52.56
2022-08-17T07:05:28.849Z,51.92
2022-08-17T07:08:18.679Z,50.96
2022-08-17T07:10:57.400Z,52.31
2022-08-17T07:13:41.646Z,52.91
2022-08-17T07:16:27.519Z,51.01
2022-08-17T07:18:57.654Z,50.11
2022-08-17T07:21:40.980Z,49.32
2022-08-17T07:24:29.632Z,48.72
2022-08-17T07:27:38.240Z,48.62
2022-08-17T07:30:11.269Z,48.45
2022-08-17T07:32:59.935Z,47.91
2022-08-17T07:35:31.310Z,48.30
2022-08-17T07:38:26.902Z,47.22
2022-08-17T07:41:04.996Z,47.25
2022-08-17T07:43:41.703Z,46.20
2022-08-17T09:00:49.323Z,34.08
2022-08-17T09:03:28.084Z,34.67
2022-08-17T09:06:33.237Z,34.15
2022-08-17T09:09:09.790Z,33.00
2022-08-17T09:12:08.706Z,32.76
2022-08-17T09:14:45.341Z,32.14
2022-08-17T09:17:19.497Z,33.55
2022-08-17T09:19:50.194Z,33.08
2022-08-17T09:22:31.610Z,32.57
2022-08-17T09:25:08.198Z,32.88
2022-08-17T09:27:54.200Z,33.17
2022-08-17T09:30:23.834Z,32.59
2022-08-17T09:32:57.423Z,31.76
2022-08-17T09:35:37.534Z,31.62
2022-08-17T09:38:23.240Z,31.41
2022-08-17T09:41:09.569Z,31.27
2022-08-17T09:44:09.535Z,30.80
2022-08-17T09:47:06.867Z,31.72
2022-08-17T09:49:47.595Z,29.97
2022-08-17T09:52:27.623Z,31.60
2022-08-17T09:54:56.895Z,29.59
2022-08-17T09:57:32.326Z,28.92
2022-08-17T10:00:11.949Z,26.70
2022-08-17T10:03:09.921Z,28.09
2022-08-17T10:05:47.191Z,29.17
2022-08-17T10:08:42.821Z,29.87
2022-08-17T10:11:50.254Z,29.47
2022-08-17T10:14:36.237Z,28.94
2022-08-17T10:17:24.614Z,29.38
2022-08-17T10:20:13.006Z,28.82
2022-08-17T10:23:04.925Z,29.76
2022-08-17T10:25:55.890Z,29.53
2022-08-17T10:28:31.062Z,29.30
2022-08-17T10:31:34.361Z,28.54
2022-08-17T10:34:11.443Z,29.64
2022-08-17T10:37:11.296Z,27.64
2022-08-17T10:40:15.508Z,26.62
2022-08-17T10:43:03.410Z,27.33
2022-08-17T10:45:48.519Z,28.74
2022-08-17T10:48:39.993Z,26.83
2022-08-17T10:51:12.678Z,27.13
2022-08-17T10:53:43.462Z,26.37
2022-08-17T10:56:13.675Z,27.11
2022-08-17T10:58:55.654Z,27.48
2022-08-17T11:01:29.652Z,26.37
2022-08-17T11:03:59.148Z,26.39
2022-08-17T11:06:36.504Z,27.99
2022-08-17T11:09:19.986Z,27.01
2022-08-17T11:11:56.093Z,27.56
2022-08-17T11:14:41.301Z,26.83
2022-08-17T11:17:22.651Z,26.00
2022-08-17T11:20:09.625Z,24.62
2022-08-17T11:23:12.939Z,26.22
2022-08-17T11:25:47.139Z,26.53
2022-08-17T11:28:19.279Z,27.15
2022-08-17T11:30:54.101Z,25.46
2022-08-17T11:33:30.535Z,25.69
2022-08-17T11:36:26.377Z,26.18
2022-08-17T11:39:16.530Z,27.73
2022-08-17T11:42:18.052Z,26.07
2022-08-17T11:44:56.961Z,28.11
2022-08-17T11:47:49.523Z,26.57
2022-08-17T11:51:07.290Z,27.12
2022-08-17T11:53:37.673Z,26.17
2022-08-17T11:56:31.763Z,26.52
2022-08-17T11:59:00.857Z,27.13
2022-08-17T12:01:46.396Z,27.25
2022-08-17T12:04:23.094Z,26.01
2022-08-17T12:07:01.824Z,26.50
2022-08-17T12:09:34.635Z,26.21
2022-08-17T12:12:15.007Z,25.14
2022-08-17T12:17:40.615Z,24.78
2022-08-17T12:20:34.967Z,24.97
2022-08-17T12:23:26.266Z,24.51
2022-08-17T12:26:24.959Z,23.73
2022-08-17T12:28:59.709Z,23.33
2022-08-17T12:31:34.687Z,22.75
2022-08-17T12:34:04.273Z,23.54
2022-08-17T12:36:33.615Z,22.98
2022-08-17T12:39:14.139Z,22.90
2022-08-17T12:42:01.934Z,23.69
2022-08-17T12:44:36.091Z,22.66
2022-08-17T12:47:21.951Z,22.45
2022-08-17T12:49:53.063Z,22.66
2022-08-17T12:52:20.362Z,22.66
2022-08-17T12:55:01.148Z,23.60
2022-08-17T12:57:42.733Z,23.17
2022-08-17T13:00:47.483Z,24.82
2022-08-17T13:03:22.175Z,26.17
2022-08-17T13:06:01.204Z,27.10
2022-08-17T13:08:35.618Z,27.33
2022-08-17T13:11:28.959Z,27.86
2022-08-17T13:14:08.589Z,27.17
2022-08-17T13:16:36.398Z,26.24
2022-08-17T13:19:15.258Z,25.85
2022-08-17T13:21:50.701Z,25.37
2022-08-17T13:24:21.713Z,25.57
2022-08-17T13:27:07.902Z,26.07
2022-08-17T13:29:39.721Z,25.33
2022-08-17T13:32:11.560Z,26.29
2022-08-17T13:35:12.198Z,27.75
2022-08-17T13:37:35.667Z,28.38
2022-08-17T13:40:08.866Z,28.40
2022-08-17T13:42:56.671Z,29.22
2022-08-17T13:45:39.518Z,28.91
2022-08-17T13:48:13.794Z,27.61
2022-08-17T13:50:56.716Z,27.54
2022-08-17T13:53:34.417Z,26.78
2022-08-17T13:56:07.444Z,25.83
2022-08-17T13:59:00.388Z,26.16
2022-08-17T14:01:34.388Z,25.94
2022-08-17T14:04:07.075Z,24.25
2022-08-17T14:06:52.095Z,25.10
2022-08-17T14:09:23.275Z,24.25
2022-08-17T14:11:54.023Z,24.85
2022-08-17T14:14:23.373Z,23.97
2022-08-17T14:16:52.077Z,24.32
2022-08-17T14:19:21.979Z,24.03
2022-08-17T14:21:50.249Z,23.52
2022-08-17T14:24:44.477Z,23.67
2022-08-17T14:27:17.730Z,24.76
2022-08-17T14:29:45.445Z,22.75
2022-08-17T14:32:23.093Z,23.20
2022-08-17T14:34:51.083Z,23.25
2022-08-17T14:37:22.083Z,23.80
2022-08-17T14:39:49.606Z,24.15
2022-08-17T14:42:17.679Z,24.26
2022-08-17T14:44:45.099Z,23.94
2022-08-17T14:47:15.079Z,23.19
2022-08-17T14:49:42.421Z,23.87
2022-08-17T14:52:13.662Z,23.35
2022-08-17T14:54:45.554Z,24.43
2022-08-17T14:57:23.804Z,24.02
2022-08-17T15:00:01.464Z,24.53
2022-08-17T15:02:30.933Z,25.63
2022-08-17T15:05:04.695Z,26.02
2022-08-17T15:07:32.759Z,27.25
2022-08-17T15:10:02.077Z,28.29
2022-08-17T15:12:34.056Z,28.10
2022-08-17T15:15:05.511Z,28.64
2022-08-17T15:17:45.063Z,28.80
2022-08-17T15:20:21.656Z,29.42
2022-08-17T15:23:00.166Z,31.49
2022-08-17T15:25:30.406Z,28.79
2022-08-17T15:27:58.600Z,29.69
2022-08-17T15:30:27.290Z,29.02
2022-08-17T15:32:56.885Z,28.34
2022-08-17T15:35:30.691Z,29.55
2022-08-17T15:38:09.849Z,29.82
2022-08-17T15:40:44.942Z,30.59
2022-08-17T15:43:16.169Z,29.88
2022-08-17T15:45:44.458Z,30.50
2022-08-17T15:48:24.118Z,31.60
2022-08-17T15:50:51.598Z,32.63
2022-08-17T15:53:18.830Z,32.04
2022-08-17T15:55:46.213Z,31.61
2022-08-17T15:58:13.457Z,31.87
2022-08-17T16:00:49.441Z,32.04
2022-08-17T16:03:59.314Z,32.84
2022-08-17T16:06:08.949Z,32.88
2022-08-17T16:08:39.371Z,33.74
2022-08-17T16:11:08.131Z,33.16
2022-08-17T16:13:35.567Z,32.36
2022-08-17T16:16:03.082Z,33.46
2022-08-17T16:18:31.781Z,33.16
2022-08-17T16:21:21.837Z,33.48
2022-08-17T16:23:51.558Z,34.34
2022-08-17T16:26:19.598Z,34.39
2022-08-17T16:28:47.527Z,35.29
2022-08-17T16:31:14.996Z,36.27
2022-08-17T16:33:43.975Z,37.77
2022-08-17T16:36:31.346Z,38.82
2022-08-17T16:38:59.355Z,39.98
2022-08-17T16:41:44.406Z,39.59
2022-08-17T16:44:18.263Z,39.71
2022-08-17T16:46:47.442Z,41.27
2022-08-17T16:49:35.195Z,41.53
2022-08-17T16:52:04.564Z,43.17
2022-08-17T16:54:32.059Z,43.79
2022-08-17T16:56:59.361Z,44.19
2022-08-17T16:59:31.362Z,44.37
2022-08-17T17:02:11.274Z,43.05
2022-08-17T17:04:52.493Z,44.28
2022-08-17T17:07:49.748Z,45.81
2022-08-17T17:10:39.266Z,46.83
2022-08-17T17:13:13.533Z,46.38
2022-08-17T17:16:01.362Z,45.92
2022-08-17T17:18:58.196Z,45.54
2022-08-17T17:21:36.093Z,45.69
2022-08-17T17:24:14.596Z,45.86
2022-08-17T17:27:11.225Z,46.96
2022-08-17T17:30:00.876Z,47.37
2022-08-17T17:32:49.767Z,45.48
2022-08-17T17:35:33.231Z,47.26
2022-08-17T17:38:08.239Z,48.27
2022-08-17T17:41:04.576Z,48.28
2022-08-17T17:43:39.731Z,47.89
2022-08-17T17:46:43.119Z,48.51
2022-08-17T17:49:11.385Z,48.92
2022-08-17T17:52:09.263Z,47.33
2022-08-17T17:54:38.226Z,48.80
2022-08-17T17:57:26.646Z,47.88
2022-08-17T18:00:16.270Z,48.92
2022-08-17T18:03:01.648Z,48.17
2022-08-17T18:05:38.796Z,47.84
2022-08-17T18:08:21.670Z,47.85
2022-08-17T18:11:24.623Z,49.28
2022-08-17T18:13:58.712Z,49.61
2022-08-17T18:16:29.783Z,49.30
2022-08-17T18:19:00.535Z,49.76
2022-08-17T18:21:40.072Z,48.57
2022-08-17T18:24:10.667Z,48.86
2022-08-17T18:26:44.646Z,49.00
2022-08-17T18:29:36.580Z,48.09
2022-08-17T18:32:07.543Z,46.97
2022-08-17T18:34:47.028Z,48.12
2022-08-17T18:37:31.661Z,47.72
2022-08-17T18:39:59.214Z,47.33
2022-08-17T18:42:32.259Z,47.41
2022-08-17T18:45:01.077Z,46.62
2022-08-17T18:47:29.767Z,46.38
2022-08-17T18:50:18.753Z,47.84
2022-08-17T18:52:48.742Z,46.30
2022-08-17T18:55:22.594Z,47.31
2022-08-17T18:57:56.061Z,47.59
2022-08-17T19:00:47.482Z,48.39
2022-08-17T19:03:26.899Z,49.20
2022-08-17T19:06:17.268Z,50.24
2022-08-17T19:08:44.768Z,50.37
2022-08-17T19:11:32.895Z,51.00
2022-08-17T19:14:06.245Z,50.81
2022-08-17T19:17:14.909Z,50.63
2022-08-17T19:19:57.790Z,50.23
2022-08-17T19:22:36.717Z,49.45
2022-08-17T19:25:16.913Z,48.97
2022-08-17T19:28:23.093Z,49.40
2022-08-17T19:30:57.432Z,50.66
2022-08-17T19:33:25.456Z,50.07
2022-08-17T19:36:06.542Z,51.22
2022-08-17T19:38:39.786Z,53.02
2022-08-17T19:41:31.654Z,53.81
2022-08-17T19:44:40.428Z,56.58
2022-08-17T19:47:36.291Z,56.43
2022-08-17T19:50:18.964Z,56.05
2022-08-17T19:53:05.936Z,55.02
2022-08-17T19:55:43.744Z,55.59
2022-08-17T19:58:26.672Z,54.81
2022-08-17T20:00:55.403Z,53.98
2022-08-17T20:03:52.187Z,53.53
2022-08-17T20:06:22.309Z,54.19
2022-08-17T20:09:15.197Z,53.31
2022-08-17T20:11:49.337Z,53.46
2022-08-17T20:14:31.709Z,53.96
2022-08-17T20:17:02.948Z,54.29
2022-08-17T20:20:08.451Z,53.60
2022-08-17T20:22:59.684Z,53.21
2022-08-17T20:26:05.100Z,53.54
2022-08-17T20:28:39.235Z,53.40
2022-08-17T20:31:46.923Z,53.94
2022-08-17T20:34:36.771Z,54.25
2022-08-17T20:37:28.366Z,54.87
2022-08-17T20:39:55.934Z,54.59
2022-08-17T20:42:23.490Z,54.64
2022-08-17T20:44:58.287Z,54.55
2022-08-17T20:47:50.459Z,54.03
2022-08-17T20:50:43.744Z,54.76
2022-08-17T20:53:33.074Z,55.41
2022-08-17T20:56:00.447Z,55.55
2022-08-17T20:58:31.409Z,55.22
2022-08-17T21:00:59.077Z,55.64
2022-08-17T21:03:49.175Z,55.86
2022-08-17T21:06:21.762Z,56.62
2022-08-17T21:08:55.148Z,57.22
2022-08-17T21:12:02.867Z,56.75
2022-08-17T21:14:36.739Z,56.33
2022-08-17T21:17:39.738Z,56.73
2022-08-17T21:20:14.885Z,55.36
2022-08-17T21:23:13.152Z,56.24
2022-08-17T21:25:48.299Z,56.40
2022-08-17T21:29:00.505Z,55.93
2022-08-17T21:31:38.967Z,57.19
2022-08-17T21:34:15.448Z,57.65
2022-08-17T21:36:45.500Z,57.71
2022-08-17T21:39:17.177Z,57.56
2022-08-17T21:41:57.431Z,58.08
2022-08-17T21:44:38.284Z,57.93
2022-08-17T21:47:27.184Z,58.57
2022-08-17T21:49:56.007Z,58.59
2022-08-17T21:52:27.459Z,58.60
2022-08-17T21:55:02.511Z,58.40
2022-08-17T21:57:32.750Z,58.72
2022-08-17T22:00:16.478Z,58.58
2022-08-17T22:02:44.004Z,58.76
2022-08-17T22:05:14.160Z,58.30
2022-08-17T22:07:50.936Z,59.03
2022-08-17T22:10:40.317Z,58.77
2022-08-17T22:13:18.588Z,58.36
2022-08-17T22:16:15.390Z,58.60
2022-08-17T22:18:58.319Z,59.18
2022-08-17T22:21:26.281Z,59.03
2022-08-17T22:24:06.459Z,58.92
2022-08-17T22:27:01.664Z,58.68
2022-08-17T22:29:47.800Z,58.46
2022-08-17T22:32:37.505Z,59.42
2022-08-17T22:35:26.279Z,59.06
2022-08-17T22:37:53.612Z,59.12
2022-08-17T22:40:34.545Z,59.98
2022-08-17T22:43:03.638Z,60.11
2022-08-17T22:45:32.517Z,61.07
2022-08-17T22:48:02.130Z,60.81
2022-08-17T22:50:33.205Z,61.41
2022-08-17T22:53:34.593Z,62.00
2022-08-17T22:56:20.581Z,62.32
2022-08-17T22:59:17.891Z,62.54
2022-08-17T23:02:05.270Z,62.95
2022-08-17T23:04:38.060Z,63.27
2022-08-17T23:07:09.022Z,63.63
2022-08-17T23:09:36.834Z,63.98
2022-08-17T23:12:09.201Z,63.89
2022-08-17T23:14:42.494Z,65.04
2022-08-17T23:17:10.069Z,65.40
2022-08-17T23:19:37.775Z,65.52
2022-08-17T23:22:08.561Z,65.79
2022-08-17T23:24:42.639Z,65.51
2022-08-17T23:27:13.510Z,65.87
2022-08-17T23:29:42.242Z,65.42
2022-08-17T23:32:13.611Z,65.20
2022-08-17T23:34:42.552Z,65.13
2022-08-17T23:37:12.920Z,66.49
2022-08-17T23:39:40.413Z,65.86
2022-08-17T23:42:10.733Z,66.16
2022-08-17T23:44:40.125Z,64.95
2022-08-17T23:47:07.888Z,65.25
2022-08-17T23:49:36.410Z,64.98
2022-08-17T23:52:09.875Z,64.83
2022-08-17T23:54:43.666Z,64.35
2022-08-17T23:57:17.975Z,65.26
2022-08-17T23:59:45.659Z,64.92
